createdAt,value
2018-07-04T00:00:05.683Z,22.781372
2018-07-04T00:00:22.139Z,22.76123
2018-07-04T00:00:38.591Z,22.75116
2018-07-04T00:00:55.027Z,22.720947
2018-07-04T00:01:11.466Z,22.690735
2018-07-04T00:01:27.925Z,22.700806
2018-07-04T00:01:44.392Z,22.670593
2018-07-04T00:02:00.797Z,22.690735
2018-07-04T00:02:17.247Z,22.700806
2018-07-04T00:02:33.691Z,22.670593
2018-07-04T00:02:50.122Z,22.690735
2018-07-04T00:03:06.565Z,22.700806
2018-07-04T00:03:23.022Z,22.741089
2018-07-04T00:03:39.440Z,22.741089
2018-07-04T00:03:55.879Z,22.720947
2018-07-04T00:04:12.322Z,22.700806
2018-07-04T00:04:28.758Z,22.700806
2018-07-04T00:04:45.251Z,22.720947
2018-07-04T00:05:01.732Z,22.700806
2018-07-04T00:05:18.204Z,22.700806
2018-07-04T00:05:34.658Z,22.720947
2018-07-04T00:05:51.115Z,22.720947
2018-07-04T00:06:07.536Z,22.700806
2018-07-04T00:06:23.999Z,22.700806
2018-07-04T00:06:40.463Z,22.720947
2018-07-04T00:06:56.885Z,22.690735
2018-07-04T00:07:13.346Z,22.690735
2018-07-04T00:07:29.857Z,22.720947
2018-07-04T00:07:46.365Z,22.700806
2018-07-04T00:08:02.792Z,22.700806
2018-07-04T00:08:19.353Z,22.690735
2018-07-04T00:08:35.767Z,22.690735
2018-07-04T00:08:52.205Z,22.690735
2018-07-04T00:09:08.699Z,22.700806
2018-07-04T00:09:25.229Z,22.700806
2018-07-04T00:09:41.723Z,22.670593
2018-07-04T00:09:58.188Z,22.690735
2018-07-04T00:10:14.650Z,22.690735
2018-07-04T00:10:31.092Z,22.670593
2018-07-04T00:10:47.548Z,22.660522
2018-07-04T00:11:03.996Z,22.640381
2018-07-04T00:11:20.582Z,22.660522
2018-07-04T00:11:36.984Z,22.670593
2018-07-04T00:11:53.495Z,22.660522
2018-07-04T00:12:09.932Z,22.670593
2018-07-04T00:12:26.408Z,22.690735
2018-07-04T00:12:42.950Z,22.690735
2018-07-04T00:12:59.541Z,22.700806
2018-07-04T00:13:16.027Z,22.690735
2018-07-04T00:13:32.555Z,22.700806
2018-07-04T00:13:48.990Z,22.700806
2018-07-04T00:14:05.491Z,22.660522
2018-07-04T00:14:22.032Z,22.670593
2018-07-04T00:14:38.473Z,22.63031
2018-07-04T00:14:54.943Z,22.600098
2018-07-04T00:15:11.440Z,22.610168
2018-07-04T00:15:27.994Z,22.610168
2018-07-04T00:15:44.482Z,22.600098
2018-07-04T00:16:00.976Z,22.590027
2018-07-04T00:16:17.464Z,22.590027
2018-07-04T00:16:33.945Z,22.569885
2018-07-04T00:16:50.485Z,22.590027
2018-07-04T00:17:06.973Z,22.559814
2018-07-04T00:17:23.456Z,22.569885
2018-07-04T00:17:40.054Z,22.559814
2018-07-04T00:17:56.479Z,22.569885
2018-07-04T00:18:12.929Z,22.590027
2018-07-04T00:18:29.376Z,22.590027
2018-07-04T00:18:45.888Z,22.569885
2018-07-04T00:19:02.317Z,22.590027
2018-07-04T00:19:18.852Z,22.569885
2018-07-04T00:19:35.357Z,22.590027
2018-07-04T00:19:51.881Z,22.559814
2018-07-04T00:20:08.433Z,22.569885
2018-07-04T00:20:24.873Z,22.569885
2018-07-04T00:20:41.387Z,22.559814
2018-07-04T00:20:57.914Z,22.559814
2018-07-04T00:21:14.384Z,22.569885
2018-07-04T00:21:30.826Z,22.569885
2018-07-04T00:21:47.308Z,22.569885
2018-07-04T00:22:03.778Z,22.569885
2018-07-04T00:22:20.209Z,22.559814
2018-07-04T00:22:36.647Z,22.569885
2018-07-04T00:22:53.100Z,22.590027
2018-07-04T00:23:09.536Z,22.590027
2018-07-04T00:23:26.018Z,22.590027
2018-07-04T00:23:42.484Z,22.590027
2018-07-04T00:23:58.916Z,22.600098
2018-07-04T00:24:15.368Z,22.600098
2018-07-04T00:24:31.836Z,22.610168
2018-07-04T00:24:48.248Z,22.600098
2018-07-04T00:25:04.702Z,22.610168
2018-07-04T00:25:21.127Z,22.590027
2018-07-04T00:25:37.625Z,22.610168
2018-07-04T00:25:54.069Z,22.610168
2018-07-04T00:26:10.480Z,22.610168
2018-07-04T00:26:26.927Z,22.600098
2018-07-04T00:26:43.392Z,22.610168
2018-07-04T00:26:59.827Z,22.610168
2018-07-04T00:27:16.310Z,22.590027
2018-07-04T00:27:32.750Z,22.590027
2018-07-04T00:27:49.194Z,22.600098
2018-07-04T00:28:05.681Z,22.559814
2018-07-04T00:28:22.115Z,22.569885
2018-07-04T00:28:38.553Z,22.569885
2018-07-04T00:28:55.036Z,22.590027
2018-07-04T00:29:11.493Z,22.559814
2018-07-04T00:29:27.949Z,22.590027
2018-07-04T00:29:44.433Z,22.569885
2018-07-04T00:30:00.864Z,22.559814
2018-07-04T00:30:17.394Z,22.559814
2018-07-04T00:30:33.830Z,22.569885
2018-07-04T00:30:50.308Z,22.590027
2018-07-04T00:31:06.750Z,22.590027
2018-07-04T00:31:23.206Z,22.610168
2018-07-04T00:31:39.647Z,22.610168
2018-07-04T00:31:56.101Z,22.63031
2018-07-04T00:32:12.554Z,22.640381
2018-07-04T00:32:29.003Z,22.640381
2018-07-04T00:32:45.468Z,22.660522
2018-07-04T00:33:01.971Z,22.610168
2018-07-04T00:33:18.445Z,22.640381
2018-07-04T00:33:34.902Z,22.640381
2018-07-04T00:33:51.343Z,22.640381
2018-07-04T00:34:07.799Z,22.640381
2018-07-04T00:34:24.237Z,22.670593
2018-07-04T00:34:40.695Z,22.690735
2018-07-04T00:34:57.161Z,22.670593
2018-07-04T00:35:13.573Z,22.660522
2018-07-04T00:35:30.019Z,22.660522
2018-07-04T00:35:46.484Z,22.640381
2018-07-04T00:36:02.924Z,22.63031
2018-07-04T00:36:19.354Z,22.640381
2018-07-04T00:36:35.819Z,22.610168
2018-07-04T00:36:52.329Z,22.610168
2018-07-04T00:37:08.835Z,22.600098
2018-07-04T00:37:25.288Z,22.590027
2018-07-04T00:37:41.795Z,22.600098
2018-07-04T00:37:58.180Z,22.569885
2018-07-04T00:38:14.628Z,22.559814
2018-07-04T00:38:31.067Z,22.559814
2018-07-04T00:38:47.533Z,22.539673
2018-07-04T00:39:04.006Z,22.519531
2018-07-04T00:39:20.565Z,22.559814
2018-07-04T00:39:37.020Z,22.539673
2018-07-04T00:39:53.484Z,22.559814
2018-07-04T00:40:09.934Z,22.590027
2018-07-04T00:40:26.395Z,22.569885
2018-07-04T00:40:42.876Z,22.559814
2018-07-04T00:40:59.330Z,22.569885
2018-07-04T00:41:15.791Z,22.569885
2018-07-04T00:41:32.225Z,22.590027
2018-07-04T00:41:48.690Z,22.590027
2018-07-04T00:42:05.170Z,22.590027
2018-07-04T00:42:21.628Z,22.590027
2018-07-04T00:42:38.096Z,22.600098
2018-07-04T00:42:54.564Z,22.590027
2018-07-04T00:43:11.033Z,22.569885
2018-07-04T00:43:27.533Z,22.600098
2018-07-04T00:43:43.995Z,22.590027
2018-07-04T00:44:00.443Z,22.559814
2018-07-04T00:44:16.886Z,22.539673
2018-07-04T00:44:33.321Z,22.519531
2018-07-04T00:44:49.762Z,22.539673
2018-07-04T00:45:06.196Z,22.559814
2018-07-04T00:45:22.640Z,22.519531
2018-07-04T00:45:39.089Z,22.559814
2018-07-04T00:45:55.581Z,22.539673
2018-07-04T00:46:12.032Z,22.539673
2018-07-04T00:46:28.515Z,22.559814
2018-07-04T00:46:52.968Z,22.539673
2018-07-04T00:47:09.406Z,22.569885
2018-07-04T00:47:25.834Z,22.559814
2018-07-04T00:47:42.278Z,22.590027
2018-07-04T00:47:58.715Z,22.559814
2018-07-04T00:48:15.174Z,22.519531
2018-07-04T00:48:31.614Z,22.50946
2018-07-04T00:48:48.116Z,22.50946
2018-07-04T00:49:04.584Z,22.50946
2018-07-04T00:49:21.049Z,22.50946
2018-07-04T00:49:37.472Z,22.50946
2018-07-04T00:49:53.929Z,22.50946
2018-07-04T00:50:10.346Z,22.479248
2018-07-04T00:50:26.795Z,22.489319
2018-07-04T00:50:43.241Z,22.50946
2018-07-04T00:50:59.690Z,22.479248
2018-07-04T00:51:16.133Z,22.479248
2018-07-04T00:51:32.597Z,22.489319
2018-07-04T00:51:49.037Z,22.50946
2018-07-04T00:52:05.472Z,22.489319
2018-07-04T00:52:21.920Z,22.489319
2018-07-04T00:52:38.364Z,22.489319
2018-07-04T00:52:54.819Z,22.489319
2018-07-04T00:53:11.263Z,22.519531
2018-07-04T00:53:27.689Z,22.539673
2018-07-04T00:53:44.236Z,22.50946
2018-07-04T00:54:00.710Z,22.489319
2018-07-04T00:54:17.153Z,22.459106
2018-07-04T00:54:33.596Z,22.479248
2018-07-04T00:54:50.025Z,22.459106
2018-07-04T00:55:06.469Z,22.449036
2018-07-04T00:55:22.903Z,22.459106
2018-07-04T00:55:39.341Z,22.449036
2018-07-04T00:55:55.795Z,22.459106
2018-07-04T00:56:12.251Z,22.459106
2018-07-04T00:56:28.688Z,22.449036
2018-07-04T00:56:45.153Z,22.449036
2018-07-04T00:57:01.651Z,22.449036
2018-07-04T00:57:18.077Z,22.438965
2018-07-04T00:57:34.529Z,22.449036
2018-07-04T00:57:50.952Z,22.479248
2018-07-04T00:58:08.415Z,22.489319
2018-07-04T00:58:24.857Z,22.489319
2018-07-04T00:58:41.299Z,22.50946
2018-07-04T00:58:57.773Z,22.519531
2018-07-04T00:59:14.214Z,22.489319
2018-07-04T00:59:30.662Z,22.519531
2018-07-04T00:59:47.130Z,22.519531
2018-07-04T01:00:03.577Z,22.519531
2018-07-04T01:00:20.022Z,22.519531
2018-07-04T01:00:36.495Z,22.50946
2018-07-04T01:00:52.959Z,22.50946
2018-07-04T01:01:09.418Z,22.50946
2018-07-04T01:01:25.854Z,22.519531
2018-07-04T01:01:42.322Z,22.519531
2018-07-04T01:01:58.804Z,22.50946
2018-07-04T01:02:15.223Z,22.479248
2018-07-04T01:02:31.705Z,22.489319
2018-07-04T01:02:48.178Z,22.479248
2018-07-04T01:03:04.606Z,22.449036
2018-07-04T01:03:22.082Z,22.459106
2018-07-04T01:03:38.520Z,22.479248
2018-07-04T01:03:54.975Z,22.489319
2018-07-04T01:04:11.443Z,22.50946
2018-07-04T01:04:27.913Z,22.50946
2018-07-04T01:04:44.364Z,22.489319
2018-07-04T01:05:00.804Z,22.489319
2018-07-04T01:05:17.256Z,22.459106
2018-07-04T01:05:33.710Z,22.449036
2018-07-04T01:05:50.146Z,22.449036
2018-07-04T01:06:06.650Z,22.459106
2018-07-04T01:06:23.170Z,22.449036
2018-07-04T01:06:39.638Z,22.438965
2018-07-04T01:06:57.158Z,22.449036
2018-07-04T01:07:13.617Z,22.449036
2018-07-04T01:07:30.122Z,22.438965
2018-07-04T01:07:46.610Z,22.438965
2018-07-04T01:08:03.093Z,22.408752
2018-07-04T01:08:19.560Z,22.418823
2018-07-04T01:08:36.003Z,22.418823
2018-07-04T01:08:52.428Z,22.418823
2018-07-04T01:09:08.871Z,22.438965
2018-07-04T01:09:25.312Z,22.449036
2018-07-04T01:09:41.757Z,22.449036
2018-07-04T01:09:58.214Z,22.459106
2018-07-04T01:10:14.663Z,22.459106
2018-07-04T01:10:31.142Z,22.449036
2018-07-04T01:10:47.691Z,22.438965
2018-07-04T01:11:04.168Z,22.449036
2018-07-04T01:11:20.624Z,22.438965
2018-07-04T01:11:37.127Z,22.438965
2018-07-04T01:11:53.664Z,22.438965
2018-07-04T01:12:10.102Z,22.418823
2018-07-04T01:12:26.552Z,22.408752
2018-07-04T01:12:43.984Z,22.418823
2018-07-04T01:13:00.425Z,22.418823
2018-07-04T01:13:16.880Z,22.408752
2018-07-04T01:13:33.323Z,22.388611
2018-07-04T01:13:49.778Z,22.438965
2018-07-04T01:14:06.236Z,22.418823
2018-07-04T01:14:22.683Z,22.449036
2018-07-04T01:14:39.135Z,22.449036
2018-07-04T01:14:55.564Z,22.438965
2018-07-04T01:15:11.986Z,22.449036
2018-07-04T01:15:28.442Z,22.459106
2018-07-04T01:15:46.855Z,22.438965
2018-07-04T01:16:03.316Z,22.438965
2018-07-04T01:16:19.758Z,22.449036
2018-07-04T01:16:36.226Z,22.449036
2018-07-04T01:16:52.661Z,22.449036
2018-07-04T01:17:09.112Z,22.449036
2018-07-04T01:17:25.541Z,22.459106
2018-07-04T01:17:41.993Z,22.449036
2018-07-04T01:17:58.482Z,22.438965
2018-07-04T01:18:14.947Z,22.449036
2018-07-04T01:18:31.397Z,22.438965
2018-07-04T01:18:47.864Z,22.438965
2018-07-04T01:19:04.300Z,22.408752
2018-07-04T01:19:20.761Z,22.418823
2018-07-04T01:19:37.220Z,22.388611
2018-07-04T01:19:53.653Z,22.388611
2018-07-04T01:20:10.098Z,22.388611
2018-07-04T01:20:26.552Z,22.37854
2018-07-04T01:20:42.985Z,22.348328
2018-07-04T01:20:59.422Z,22.348328
2018-07-04T01:21:15.933Z,22.328186
2018-07-04T01:21:32.395Z,22.328186
2018-07-04T01:21:48.858Z,22.328186
2018-07-04T01:22:05.310Z,22.308044
2018-07-04T01:22:21.755Z,22.308044
2018-07-04T01:22:38.198Z,22.308044
2018-07-04T01:22:54.682Z,22.308044
2018-07-04T01:23:11.107Z,22.308044
2018-07-04T01:23:27.589Z,22.328186
2018-07-04T01:23:44.062Z,22.308044
2018-07-04T01:24:01.508Z,22.297974
2018-07-04T01:24:17.947Z,22.308044
2018-07-04T01:24:34.395Z,22.297974
2018-07-04T01:24:50.827Z,22.297974
2018-07-04T01:25:07.283Z,22.287903
2018-07-04T01:25:23.725Z,22.267761
2018-07-04T01:25:40.181Z,22.25769
2018-07-04T01:25:56.645Z,22.25769
2018-07-04T01:26:13.136Z,22.237549
2018-07-04T01:26:29.651Z,22.227478
2018-07-04T01:26:46.088Z,22.207336
2018-07-04T01:27:02.561Z,22.207336
2018-07-04T01:27:18.998Z,22.207336
2018-07-04T01:27:36.430Z,22.187195
2018-07-04T01:27:52.881Z,22.187195
2018-07-04T01:28:09.347Z,22.146912
2018-07-04T01:28:25.784Z,22.146912
2018-07-04T01:28:42.254Z,22.146912
2018-07-04T01:28:58.702Z,22.116699
2018-07-04T01:29:15.136Z,22.116699
2018-07-04T01:29:32.623Z,22.146912
2018-07-04T01:29:49.114Z,22.146912
2018-07-04T01:30:05.528Z,22.146912
2018-07-04T01:30:21.993Z,22.116699
2018-07-04T01:30:38.455Z,22.146912
2018-07-04T01:30:54.899Z,22.136841
2018-07-04T01:31:11.347Z,22.136841
2018-07-04T01:31:27.797Z,22.167053
2018-07-04T01:31:44.257Z,22.197266
2018-07-04T01:32:00.694Z,22.167053
2018-07-04T01:32:17.167Z,22.167053
2018-07-04T01:32:33.594Z,22.146912
2018-07-04T01:32:50.042Z,22.167053
2018-07-04T01:33:06.523Z,22.146912
2018-07-04T01:33:22.947Z,22.116699
2018-07-04T01:33:39.416Z,22.116699
2018-07-04T01:33:55.899Z,22.106628
2018-07-04T01:34:12.349Z,22.116699
2018-07-04T01:34:28.794Z,22.136841
2018-07-04T01:34:45.234Z,22.146912
2018-07-04T01:35:01.674Z,22.187195
2018-07-04T01:35:18.131Z,22.167053
2018-07-04T01:35:34.578Z,22.136841
2018-07-04T01:35:51.007Z,22.146912
2018-07-04T01:36:07.463Z,22.146912
2018-07-04T01:36:23.926Z,22.136841
2018-07-04T01:36:40.442Z,22.116699
2018-07-04T01:36:58.866Z,22.106628
2018-07-04T01:37:15.344Z,22.086487
2018-07-04T01:37:31.822Z,22.086487
2018-07-04T01:37:48.267Z,22.056274
2018-07-04T01:38:04.755Z,22.046204
2018-07-04T01:38:21.224Z,22.056274
2018-07-04T01:38:37.633Z,22.056274
2018-07-04T01:38:54.080Z,22.046204
2018-07-04T01:39:10.523Z,22.046204
2018-07-04T01:39:26.976Z,22.076416
2018-07-04T01:39:43.437Z,22.086487
2018-07-04T01:39:59.862Z,22.106628
2018-07-04T01:40:16.342Z,22.116699
2018-07-04T01:40:32.855Z,22.116699
2018-07-04T01:40:49.244Z,22.116699
2018-07-04T01:41:05.736Z,22.136841
2018-07-04T01:41:22.215Z,22.146912
2018-07-04T01:41:38.655Z,22.167053
2018-07-04T01:41:55.220Z,22.187195
2018-07-04T01:42:11.681Z,22.187195
2018-07-04T01:42:28.197Z,22.197266
2018-07-04T01:42:44.665Z,22.227478
2018-07-04T01:43:01.137Z,22.207336
2018-07-04T01:43:18.575Z,22.207336
2018-07-04T01:43:35.076Z,22.197266
2018-07-04T01:43:51.574Z,22.167053
2018-07-04T01:44:08.043Z,22.187195
2018-07-04T01:44:24.509Z,22.167053
2018-07-04T01:44:40.959Z,22.167053
2018-07-04T01:44:57.439Z,22.167053
2018-07-04T01:45:13.945Z,22.167053
2018-07-04T01:45:30.379Z,22.146912
2018-07-04T01:45:46.842Z,22.136841
2018-07-04T01:46:03.313Z,22.167053
2018-07-04T01:46:19.782Z,22.146912
2018-07-04T01:46:36.225Z,22.167053
2018-07-04T01:46:52.687Z,22.187195
2018-07-04T01:47:09.150Z,22.146912
2018-07-04T01:47:25.591Z,22.146912
2018-07-04T01:47:43.069Z,22.167053
2018-07-04T01:47:59.541Z,22.167053
2018-07-04T01:48:15.969Z,22.187195
2018-07-04T01:48:32.418Z,22.167053
2018-07-04T01:48:48.896Z,22.167053
2018-07-04T01:49:05.335Z,22.146912
2018-07-04T01:49:21.806Z,22.146912
2018-07-04T01:49:38.267Z,22.146912
2018-07-04T01:49:54.733Z,22.146912
2018-07-04T01:50:11.195Z,22.146912
2018-07-04T01:50:27.638Z,22.146912
2018-07-04T01:50:44.125Z,22.116699
2018-07-04T01:51:00.627Z,22.136841
2018-07-04T01:51:17.056Z,22.116699
2018-07-04T01:51:33.491Z,22.136841
2018-07-04T01:51:49.967Z,22.136841
2018-07-04T01:52:06.430Z,22.136841
2018-07-04T01:52:22.878Z,22.146912
2018-07-04T01:52:39.315Z,22.136841
2018-07-04T01:52:55.766Z,22.116699
2018-07-04T01:53:12.225Z,22.116699
2018-07-04T01:53:28.692Z,22.146912
2018-07-04T01:53:46.225Z,22.116699
2018-07-04T01:54:02.698Z,22.136841
2018-07-04T01:54:19.223Z,22.116699
2018-07-04T01:54:35.739Z,22.106628
2018-07-04T01:54:52.185Z,22.106628
2018-07-04T01:55:08.632Z,22.116699
2018-07-04T01:55:25.076Z,22.106628
2018-07-04T01:55:41.526Z,22.106628
2018-07-04T01:55:57.979Z,22.106628
2018-07-04T01:56:14.444Z,22.116699
2018-07-04T01:56:30.894Z,22.076416
2018-07-04T01:56:47.403Z,22.086487
2018-07-04T01:57:03.868Z,22.056274
2018-07-04T01:57:20.325Z,22.106628
2018-07-04T01:57:36.778Z,22.076416
2018-07-04T01:57:53.217Z,22.056274
2018-07-04T01:58:09.670Z,22.076416
2018-07-04T01:58:26.125Z,22.046204
2018-07-04T01:58:42.568Z,22.056274
2018-07-04T01:58:59.003Z,22.046204
2018-07-04T01:59:15.479Z,22.015991
2018-07-04T01:59:31.972Z,22.056274
2018-07-04T01:59:48.454Z,22.056274
2018-07-04T02:00:04.954Z,22.056274
2018-07-04T02:00:21.360Z,22.056274
2018-07-04T02:00:37.806Z,22.036133
2018-07-04T02:00:54.230Z,22.056274
2018-07-04T02:01:10.691Z,22.086487
2018-07-04T02:01:27.122Z,22.086487
2018-07-04T02:01:43.587Z,22.106628
2018-07-04T02:02:00.038Z,22.086487
2018-07-04T02:02:16.538Z,22.086487
2018-07-04T02:02:32.998Z,22.116699
2018-07-04T02:02:49.424Z,22.116699
2018-07-04T02:03:05.910Z,22.106628
2018-07-04T02:03:23.377Z,22.116699
2018-07-04T02:03:39.840Z,22.086487
2018-07-04T02:03:56.292Z,22.116699
2018-07-04T02:04:12.748Z,22.106628
2018-07-04T02:04:29.190Z,22.076416
2018-07-04T02:04:45.645Z,22.086487
2018-07-04T02:05:02.105Z,22.076416
2018-07-04T02:05:18.584Z,22.056274
2018-07-04T02:05:35.036Z,22.036133
2018-07-04T02:05:51.462Z,22.015991
2018-07-04T02:06:07.912Z,22.036133
2018-07-04T02:06:24.386Z,22.036133
2018-07-04T02:06:41.806Z,22.036133
2018-07-04T02:06:58.270Z,22.046204
2018-07-04T02:07:14.725Z,22.056274
2018-07-04T02:07:31.180Z,22.056274
2018-07-04T02:07:47.681Z,22.046204
2018-07-04T02:08:04.172Z,22.046204
2018-07-04T02:08:20.634Z,22.076416
2018-07-04T02:08:38.113Z,22.036133
2018-07-04T02:08:54.583Z,22.056274
2018-07-04T02:09:11.057Z,22.076416
2018-07-04T02:09:27.544Z,22.036133
2018-07-04T02:09:43.989Z,22.036133
2018-07-04T02:10:00.406Z,22.015991
2018-07-04T02:10:16.850Z,22.00592
2018-07-04T02:10:33.342Z,22.015991
2018-07-04T02:10:49.816Z,22.015991
2018-07-04T02:11:06.269Z,22.00592
2018-07-04T02:11:22.713Z,21.985779
2018-07-04T02:11:39.163Z,21.975708
2018-07-04T02:11:55.616Z,21.985779
2018-07-04T02:12:12.051Z,22.00592
2018-07-04T02:12:28.510Z,21.975708
2018-07-04T02:12:44.949Z,22.015991
2018-07-04T02:13:01.386Z,22.00592
2018-07-04T02:13:17.827Z,22.00592
2018-07-04T02:13:34.269Z,22.036133
2018-07-04T02:13:51.704Z,22.036133
2018-07-04T02:14:08.144Z,22.036133
2018-07-04T02:14:24.603Z,22.015991
2018-07-04T02:14:41.025Z,22.036133
2018-07-04T02:14:57.481Z,22.036133
2018-07-04T02:15:13.944Z,22.036133
2018-07-04T02:15:30.383Z,22.046204
2018-07-04T02:15:46.836Z,22.056274
2018-07-04T02:16:03.313Z,22.076416
2018-07-04T02:16:19.780Z,22.106628
2018-07-04T02:16:36.248Z,22.106628
2018-07-04T02:16:52.753Z,22.116699
2018-07-04T02:17:09.188Z,22.136841
2018-07-04T02:17:25.685Z,22.136841
2018-07-04T02:17:42.147Z,22.136841
2018-07-04T02:17:58.613Z,22.116699
2018-07-04T02:18:15.078Z,22.106628
2018-07-04T02:18:31.509Z,22.056274
2018-07-04T02:18:47.950Z,22.076416
2018-07-04T02:19:04.398Z,22.076416
2018-07-04T02:19:20.841Z,22.076416
2018-07-04T02:19:37.292Z,22.056274
2018-07-04T02:19:53.750Z,22.046204
2018-07-04T02:20:10.171Z,22.076416
2018-07-04T02:20:26.612Z,22.076416
2018-07-04T02:20:43.053Z,22.086487
2018-07-04T02:20:59.490Z,22.086487
2018-07-04T02:21:15.978Z,22.086487
2018-07-04T02:21:32.462Z,22.076416
2018-07-04T02:21:56.804Z,22.086487
2018-07-04T02:22:13.237Z,22.086487
2018-07-04T02:22:29.686Z,22.086487
2018-07-04T02:22:46.145Z,22.076416
2018-07-04T02:23:02.574Z,22.086487
2018-07-04T02:23:19.026Z,22.076416
2018-07-04T02:23:35.459Z,22.076416
2018-07-04T02:23:51.899Z,22.056274
2018-07-04T02:24:08.359Z,22.056274
2018-07-04T02:24:24.786Z,22.076416
2018-07-04T02:24:41.217Z,22.076416
2018-07-04T02:24:57.676Z,22.076416
2018-07-04T02:25:14.105Z,22.086487
2018-07-04T02:25:30.545Z,22.086487
2018-07-04T02:25:46.991Z,22.106628
2018-07-04T02:26:03.419Z,22.106628
2018-07-04T02:26:19.882Z,22.086487
2018-07-04T02:26:36.322Z,22.076416
2018-07-04T02:26:52.771Z,22.086487
2018-07-04T02:27:09.211Z,22.086487
2018-07-04T02:27:25.657Z,22.076416
2018-07-04T02:27:42.135Z,22.106628
2018-07-04T02:27:58.626Z,22.056274
2018-07-04T02:28:15.053Z,22.076416
2018-07-04T02:28:31.496Z,22.076416
2018-07-04T02:28:47.964Z,22.076416
2018-07-04T02:29:04.421Z,22.076416
2018-07-04T02:29:21.870Z,22.076416
2018-07-04T02:29:38.336Z,22.076416
2018-07-04T02:29:54.782Z,22.106628
2018-07-04T02:30:11.229Z,22.106628
2018-07-04T02:30:27.688Z,22.116699
2018-07-04T02:30:44.130Z,22.116699
2018-07-04T02:31:00.641Z,22.146912
2018-07-04T02:31:17.115Z,22.136841
2018-07-04T02:31:33.612Z,22.146912
2018-07-04T02:31:50.034Z,22.146912
2018-07-04T02:32:06.477Z,22.116699
2018-07-04T02:32:22.933Z,22.086487
2018-07-04T02:32:39.401Z,22.116699
2018-07-04T02:32:55.874Z,22.116699
2018-07-04T02:33:12.328Z,22.106628
2018-07-04T02:33:28.765Z,22.106628
2018-07-04T02:33:45.197Z,22.086487
2018-07-04T02:34:01.631Z,22.076416
2018-07-04T02:34:18.080Z,22.056274
2018-07-04T02:34:34.521Z,22.046204
2018-07-04T02:34:50.952Z,22.056274
2018-07-04T02:35:07.389Z,22.046204
2018-07-04T02:35:23.826Z,22.056274
2018-07-04T02:35:40.257Z,22.056274
2018-07-04T02:35:56.702Z,22.046204
2018-07-04T02:36:13.189Z,22.036133
2018-07-04T02:36:29.627Z,22.015991
2018-07-04T02:36:46.113Z,22.00592
2018-07-04T02:37:02.578Z,22.00592
2018-07-04T02:37:19.008Z,21.985779
2018-07-04T02:37:35.471Z,22.00592
2018-07-04T02:37:51.988Z,22.036133
2018-07-04T02:38:08.412Z,22.00592
2018-07-04T02:38:24.883Z,22.015991
2018-07-04T02:38:41.338Z,22.046204
2018-07-04T02:38:57.778Z,22.036133
2018-07-04T02:39:14.224Z,22.036133
2018-07-04T02:39:30.701Z,22.015991
2018-07-04T02:39:47.127Z,22.015991
2018-07-04T02:40:03.561Z,21.985779
2018-07-04T02:40:20.033Z,22.00592
2018-07-04T02:40:36.468Z,21.985779
2018-07-04T02:40:52.973Z,21.985779
2018-07-04T02:41:09.467Z,21.985779
2018-07-04T02:41:25.940Z,21.975708
2018-07-04T02:41:42.385Z,21.955566
2018-07-04T02:41:58.840Z,21.955566
2018-07-04T02:42:15.328Z,21.935425
2018-07-04T02:42:31.766Z,21.905212
2018-07-04T02:42:49.255Z,21.925354
2018-07-04T02:43:05.702Z,21.895142
2018-07-04T02:43:22.127Z,21.895142
2018-07-04T02:43:38.576Z,21.925354
2018-07-04T02:43:55.015Z,21.935425
2018-07-04T02:44:11.468Z,21.895142
2018-07-04T02:44:27.912Z,21.905212
2018-07-04T02:44:44.379Z,21.905212
2018-07-04T02:45:00.953Z,21.925354
2018-07-04T02:45:17.280Z,21.905212
2018-07-04T02:45:33.720Z,21.885071
2018-07-04T02:45:50.186Z,21.885071
2018-07-04T02:46:06.662Z,21.885071
2018-07-04T02:46:23.128Z,21.864929
2018-07-04T02:46:39.594Z,21.895142
2018-07-04T02:46:56.031Z,21.885071
2018-07-04T02:47:12.474Z,21.885071
2018-07-04T02:47:28.915Z,21.854858
2018-07-04T02:47:54.720Z,21.824646
2018-07-04T02:48:11.156Z,21.814575
2018-07-04T02:48:27.589Z,21.794434
2018-07-04T02:48:44.031Z,21.774292
2018-07-04T02:49:00.481Z,21.794434
2018-07-04T02:49:16.930Z,21.794434
2018-07-04T02:49:33.352Z,21.814575
2018-07-04T02:49:49.806Z,21.814575
2018-07-04T02:50:06.237Z,21.774292
2018-07-04T02:50:22.682Z,21.814575
2018-07-04T02:50:39.125Z,21.794434
2018-07-04T02:50:55.591Z,21.774292
2018-07-04T02:51:12.064Z,21.75415
2018-07-04T02:51:28.539Z,21.713867
2018-07-04T02:51:44.993Z,21.734009
2018-07-04T02:52:01.426Z,21.703796
2018-07-04T02:52:17.877Z,21.713867
2018-07-04T02:52:34.335Z,21.703796
2018-07-04T02:52:50.830Z,21.713867
2018-07-04T02:53:07.322Z,21.713867
2018-07-04T02:53:23.761Z,21.683655
2018-07-04T02:53:40.217Z,21.683655
2018-07-04T02:53:56.671Z,21.663513
2018-07-04T02:54:13.100Z,21.643372
2018-07-04T02:54:29.536Z,21.683655
2018-07-04T02:54:45.992Z,21.673584
2018-07-04T02:55:02.430Z,21.703796
2018-07-04T02:55:18.877Z,21.703796
2018-07-04T02:55:35.328Z,21.703796
2018-07-04T02:55:51.757Z,21.683655
2018-07-04T02:56:08.233Z,21.673584
2018-07-04T02:56:24.687Z,21.673584
2018-07-04T02:56:41.170Z,21.663513
2018-07-04T02:56:57.624Z,21.663513
2018-07-04T02:57:14.053Z,21.663513
2018-07-04T02:57:30.600Z,21.633301
2018-07-04T02:57:47.045Z,21.633301
2018-07-04T02:58:03.529Z,21.673584
2018-07-04T02:58:19.976Z,21.663513
2018-07-04T02:58:36.453Z,21.683655
2018-07-04T02:58:52.900Z,21.703796
2018-07-04T02:59:09.371Z,21.703796
2018-07-04T02:59:25.815Z,21.713867
2018-07-04T02:59:42.265Z,21.703796
2018-07-04T02:59:58.725Z,21.683655
2018-07-04T03:00:15.153Z,21.683655
2018-07-04T03:00:31.589Z,21.683655
2018-07-04T03:00:48.043Z,21.683655
2018-07-04T03:01:04.481Z,21.683655
2018-07-04T03:01:20.919Z,21.683655
2018-07-04T03:01:37.412Z,21.683655
2018-07-04T03:01:53.865Z,21.703796
2018-07-04T03:02:10.336Z,21.673584
2018-07-04T03:02:26.808Z,21.663513
2018-07-04T03:02:43.227Z,21.673584
2018-07-04T03:02:59.679Z,21.683655
2018-07-04T03:03:16.169Z,21.643372
2018-07-04T03:03:32.649Z,21.663513
2018-07-04T03:03:49.112Z,21.663513
2018-07-04T03:04:05.563Z,21.663513
2018-07-04T03:04:21.986Z,21.663513
2018-07-04T03:04:38.434Z,21.663513
2018-07-04T03:04:54.871Z,21.663513
2018-07-04T03:05:11.307Z,21.663513
2018-07-04T03:05:27.743Z,21.663513
2018-07-04T03:05:44.218Z,21.663513
2018-07-04T03:06:00.638Z,21.663513
2018-07-04T03:06:17.089Z,21.643372
2018-07-04T03:06:33.549Z,21.633301
2018-07-04T03:06:58.004Z,21.613159
2018-07-04T03:07:14.452Z,21.593018
2018-07-04T03:07:30.914Z,21.582947
2018-07-04T03:07:47.366Z,21.593018
2018-07-04T03:08:03.802Z,21.613159
2018-07-04T03:08:20.276Z,21.613159
2018-07-04T03:08:37.710Z,21.613159
2018-07-04T03:08:54.152Z,21.633301